Hamaritha — PF2437 — position and weather

sailwx.info

Track history (hours):
 
Tides and Currents Weather Stations Pressure Air Temp Water Temp Dewpoint Dewpoint Depression Visibility Wind Speed Wind Dir Waves Ship Positions

Hamaritha

Last reported at 2015-Sep-01 15:31 UTC. Time now 2015-Sep-02 12:54 UTC.
Position N 51°48' E 006°19'.

Length 86 m.

Type: Ship. MMSI: 244700691.

Date/timePositionNaut miles runAvg speedWind from/ knotsBaromVisibWave heightAir tempDewpointWater temp
2015-Sep-01 15:31N 51°48' E 006°19'24 4.8
2015-Sep-01 10:28N 51°54' E 005°41'5 5.4
2015-Sep-01 09:33N 51°54' E 005°33'5 4.8
2015-Sep-01 08:33N 51°55' E 005°25'5 5.1
2015-Sep-01 07:33N 51°58' E 005°18'7 6.9
2015-Sep-01 06:33N 52°01' E 005°08'7 6.9
2015-Sep-01 05:33N 52°07' E 005°03'6 6.2
2015-Sep-01 04:33N 52°13' E 005°00'7 6.9
2015-Sep-01 03:33N 52°20' E 005°01'6 6.2
2015-Sep-01 02:33N 52°24' E 004°53'0 0.5
2015-Sep-01 01:33N 52°24' E 004°52'0 0.0
2015-Sep-01 00:33N 52°24' E 004°52'0 0.0
2015-Aug-31 23:33N 52°24' E 004°52'0 0.0
2015-Aug-31 22:33N 52°24' E 004°52'0 0.0
2015-Aug-31 21:33N 52°24' E 004°52'0 0.1
2015-Aug-31 20:33N 52°24' E 004°52'0 0.2
2015-Aug-31 19:33N 52°24' E 004°52'0 0.0
2015-Aug-31 18:33N 52°24' E 004°52'0 0.0
2015-Aug-31 17:33N 52°24' E 004°52'0 0.1
2015-Aug-31 16:33N 52°24' E 004°52'0 0.0
2015-Aug-31 15:33N 52°24' E 004°52'0 0.0
2015-Aug-31 14:33N 52°24' E 004°52'0 0.0
2015-Aug-31 13:33N 52°24' E 004°52'0 0.0
2015-Aug-31 12:33N 52°24' E 004°52'0 0.3
2015-Aug-31 11:34N 52°25' E 004°52'0 0.0
2015-Aug-31 10:33N 52°25' E 004°52'0 0.0
2015-Aug-31 09:24N 52°25' E 004°52'0 0.0
2015-Aug-31 08:33N 52°25' E 004°52'0 0.0
2015-Aug-31 07:33N 52°25' E 004°52'6 6.1
2015-Aug-31 06:33N 52°21' E 004°60'8 7.8
2015-Aug-31 05:33N 52°13' E 005°00'7 7.3
2015-Aug-31 04:33N 52°06' E 005°05'6 5.7
2015-Aug-31 03:33N 52°01' E 005°06'0 0.0
2015-Aug-31 02:33N 52°01' E 005°06'0 0.0
2015-Aug-31 01:33N 52°01' E 005°06'0 0.0
2015-Aug-31 00:33N 52°01' E 005°06'0 0.0
2015-Aug-30 23:33N 52°01' E 005°06'0 0.0
2015-Aug-30 22:33N 52°01' E 005°06'0 0.0
2015-Aug-30 21:33N 52°01' E 005°06'0 0.0
2015-Aug-30 20:33N 52°01' E 005°06'0 0.0
2015-Aug-30 19:33N 52°01' E 005°06'0 0.0
2015-Aug-30 18:33N 52°01' E 005°06'0 0.0
2015-Aug-30 17:33N 52°01' E 005°06'0 0.0
2015-Aug-30 16:33N 52°01' E 005°06'0 0.0
2015-Aug-30 15:33N 52°01' E 005°06'0 0.0
2015-Aug-30 14:33N 52°01' E 005°06'0 0.0
2015-Aug-30 13:33N 52°01' E 005°06'0 0.0
2015-Aug-30 12:33N 52°01' E 005°06'0 0.0
2015-Aug-30 11:33N 52°01' E 005°06'0 0.0
2015-Aug-30 10:33N 52°01' E 005°06'0 0.0
2015-Aug-30 09:33N 52°01' E 005°06'0 0.0
2015-Aug-30 08:33N 52°01' E 005°06'0 0.0
2015-Aug-30 07:33N 52°01' E 005°06'0 0.0
2015-Aug-30 06:33N 52°01' E 005°06'0 0.0
2015-Aug-30 05:33N 52°01' E 005°06'0 0.0
2015-Aug-30 04:33N 52°01' E 005°06'0 0.0
2015-Aug-30 03:33N 52°01' E 005°06'0 0.0
2015-Aug-30 02:33N 52°01' E 005°06'0 0.0
2015-Aug-30 01:33N 52°01' E 005°06'0 0.0
2015-Aug-30 00:33N 52°01' E 005°06'0 0.0
2015-Aug-29 23:33N 52°01' E 005°06'0 0.0
2015-Aug-29 22:33N 52°01' E 005°06'0 0.0
2015-Aug-29 21:33N 52°01' E 005°06'0 0.0
2015-Aug-29 20:33N 52°01' E 005°06'0 0.0
2015-Aug-29 19:33N 52°01' E 005°06'0 0.0
2015-Aug-29 18:33N 52°01' E 005°06'6 5.9
2015-Aug-29 17:33N 51°58' E 004°58'8 7.9
2015-Aug-29 16:33N 51°55' E 004°46'9 8.6
2015-Aug-29 15:33N 51°54' E 004°32'5 4.6
2015-Aug-29 14:33N 51°55' E 004°25'0 0.0
2015-Aug-29 13:33N 51°55' E 004°25'0 0.0
2015-Aug-29 12:33N 51°55' E 004°25'0 0.0
2015-Aug-29 11:33N 51°55' E 004°25'0 0.0
2015-Aug-29 10:33N 51°55' E 004°25'0 0.0
2015-Aug-29 09:33N 51°55' E 004°25'0 0.0
2015-Aug-29 08:33N 51°55' E 004°25'0 0.0
2015-Aug-29 07:33N 51°55' E 004°25'0 0.0
2015-Aug-29 06:33N 51°55' E 004°25'0 0.0
2015-Aug-29 05:33N 51°55' E 004°25'0 0.1
2015-Aug-29 04:33N 51°55' E 004°25'0 0.0
2015-Aug-29 03:33N 51°55' E 004°25'0 0.0
2015-Aug-29 02:33N 51°55' E 004°25'0 0.0
2015-Aug-29 00:33N 51°55' E 004°25'0 0.0
2015-Aug-28 23:33N 51°55' E 004°25'0 0.0
2015-Aug-28 22:33N 51°55' E 004°25'0 0.0
2015-Aug-28 21:33N 51°55' E 004°25'0 0.0
2015-Aug-28 20:33N 51°55' E 004°25'0 0.0
2015-Aug-28 19:33N 51°55' E 004°25'2 2.1
2015-Aug-28 18:33N 51°53' E 004°27'0 0.1
2015-Aug-28 17:33N 51°53' E 004°27'0 0.0
2015-Aug-28 16:33N 51°53' E 004°27'0 0.0
2015-Aug-28 15:33N 51°53' E 004°27'0 0.0
2015-Aug-28 14:33N 51°53' E 004°27'0 0.0
2015-Aug-28 13:32N 51°53' E 004°27'0 0.0
2015-Aug-28 12:33N 51°53' E 004°27'0 0.0
2015-Aug-28 11:33N 51°53' E 004°27'0 0.0
2015-Aug-28 10:33N 51°53' E 004°27'1 1.0
2015-Aug-28 09:33N 51°54' E 004°27'6 6.3
2015-Aug-28 08:33N 51°53' E 004°37'7 6.7
2015-Aug-28 07:33N 51°49' E 004°46'8 7.8
2015-Aug-28 06:33N 51°49' E 004°59'8 7.9
2015-Aug-28 05:33N 51°49' E 005°11'1 1.2
2015-Aug-28 04:33N 51°49' E 005°13'0 0.0
2015-Aug-28 03:33N 51°49' E 005°13'0 0.0
2015-Aug-28 02:34N 51°49' E 005°13'0 0.0
2015-Aug-28 01:34N 51°49' E 005°13'0 0.0
2015-Aug-28 00:33N 51°49' E 005°13'0 0.0
2015-Aug-27 23:33N 51°49' E 005°13'0 0.0
2015-Aug-27 22:34N 51°49' E 005°13'0 0.0
2015-Aug-27 21:33N 51°49' E 005°13'0 0.0
2015-Aug-27 20:33N 51°49' E 005°13'0 0.0
2015-Aug-27 19:34N 51°49' E 005°13'0 0.0
2015-Aug-27 18:33N 51°49' E 005°13'0 0.0
2015-Aug-27 17:33N 51°49' E 005°13'0 0.0
2015-Aug-27 16:33N 51°49' E 005°13'0 0.0
2015-Aug-27 15:33N 51°49' E 005°13'0 0.0
2015-Aug-27 14:33N 51°49' E 005°13'0 0.0
2015-Aug-27 13:33N 51°49' E 005°13'0 0.0
2015-Aug-27 12:33N 51°49' E 005°13'4 3.9
2015-Aug-27 11:30N 51°49' E 005°20'7 7.2
2015-Aug-27 10:34N 51°53' E 005°28'9 8.4
2015-Aug-27 09:32N 51°54' E 005°42'58 1.5
2015-Aug-25 19:16N 51°33' E 007°10'13 1.1
2015-Aug-25 07:16N 51°36' E 007°30'0 0.0
2015-Aug-24 04:24N 51°36' E 007°30'0 0.1
2015-Aug-24 03:30N 51°36' E 007°30'0 0.0
2015-Aug-23 06:26N 51°36' E 007°30'0 0.0
2015-Aug-23 05:33N 51°36' E 007°30'0 0.0
2015-Aug-23 04:30N 51°36' E 007°30'0 0.0
2015-Aug-23 03:33N 51°36' E 007°30'0 0.0
2015-Aug-23 02:33N 51°36' E 007°30'0 0.0
2015-Aug-23 01:30N 51°36' E 007°30'0 0.0
2015-Aug-23 00:34N 51°36' E 007°30'  
Track history (hours):
 
Tides and Currents Weather Stations Pressure Air Temp Water Temp Dewpoint Dewpoint Depression Visibility Wind Speed Wind Dir Waves Ship Positions

Hamaritha

Last reported at 2015-Sep-01 15:31 UTC. Time now 2015-Sep-02 12:54 UTC.
Position N 51°48' E 006°19'.

Length 86 m.

Type: Ship. MMSI: 244700691.

Date/timePositionNaut miles runAvg speedWind from/ knotsBaromVisibWave heightAir tempDewpointWater temp
2015-Sep-01 15:31N 51°48' E 006°19'24 4.8
2015-Sep-01 10:28N 51°54' E 005°41'5 5.4
2015-Sep-01 09:33N 51°54' E 005°33'5 4.8
2015-Sep-01 08:33N 51°55' E 005°25'5 5.1
2015-Sep-01 07:33N 51°58' E 005°18'7 6.9
2015-Sep-01 06:33N 52°01' E 005°08'7 6.9
2015-Sep-01 05:33N 52°07' E 005°03'6 6.2
2015-Sep-01 04:33N 52°13' E 005°00'7 6.9
2015-Sep-01 03:33N 52°20' E 005°01'6 6.2
2015-Sep-01 02:33N 52°24' E 004°53'0 0.5
2015-Sep-01 01:33N 52°24' E 004°52'0 0.0
2015-Sep-01 00:33N 52°24' E 004°52'0 0.0
2015-Aug-31 23:33N 52°24' E 004°52'0 0.0
2015-Aug-31 22:33N 52°24' E 004°52'0 0.0
2015-Aug-31 21:33N 52°24' E 004°52'0 0.1
2015-Aug-31 20:33N 52°24' E 004°52'0 0.2
2015-Aug-31 19:33N 52°24' E 004°52'0 0.0
2015-Aug-31 18:33N 52°24' E 004°52'0 0.0
2015-Aug-31 17:33N 52°24' E 004°52'0 0.1
2015-Aug-31 16:33N 52°24' E 004°52'0 0.0
2015-Aug-31 15:33N 52°24' E 004°52'0 0.0
2015-Aug-31 14:33N 52°24' E 004°52'0 0.0
2015-Aug-31 13:33N 52°24' E 004°52'0 0.0
2015-Aug-31 12:33N 52°24' E 004°52'0 0.3
2015-Aug-31 11:34N 52°25' E 004°52'0 0.0
2015-Aug-31 10:33N 52°25' E 004°52'0 0.0
2015-Aug-31 09:24N 52°25' E 004°52'0 0.0
2015-Aug-31 08:33N 52°25' E 004°52'0 0.0
2015-Aug-31 07:33N 52°25' E 004°52'6 6.1
2015-Aug-31 06:33N 52°21' E 004°60'8 7.8
2015-Aug-31 05:33N 52°13' E 005°00'7 7.3
2015-Aug-31 04:33N 52°06' E 005°05'6 5.7
2015-Aug-31 03:33N 52°01' E 005°06'0 0.0
2015-Aug-31 02:33N 52°01' E 005°06'0 0.0
2015-Aug-31 01:33N 52°01' E 005°06'0 0.0
2015-Aug-31 00:33N 52°01' E 005°06'0 0.0
2015-Aug-30 23:33N 52°01' E 005°06'0 0.0
2015-Aug-30 22:33N 52°01' E 005°06'0 0.0
2015-Aug-30 21:33N 52°01' E 005°06'0 0.0
2015-Aug-30 20:33N 52°01' E 005°06'0 0.0
2015-Aug-30 19:33N 52°01' E 005°06'0 0.0
2015-Aug-30 18:33N 52°01' E 005°06'0 0.0
2015-Aug-30 17:33N 52°01' E 005°06'0 0.0
2015-Aug-30 16:33N 52°01' E 005°06'0 0.0
2015-Aug-30 15:33N 52°01' E 005°06'0 0.0
2015-Aug-30 14:33N 52°01' E 005°06'0 0.0
2015-Aug-30 13:33N 52°01' E 005°06'0 0.0
2015-Aug-30 12:33N 52°01' E 005°06'0 0.0
2015-Aug-30 11:33N 52°01' E 005°06'0 0.0
2015-Aug-30 10:33N 52°01' E 005°06'0 0.0
2015-Aug-30 09:33N 52°01' E 005°06'0 0.0
2015-Aug-30 08:33N 52°01' E 005°06'0 0.0
2015-Aug-30 07:33N 52°01' E 005°06'0 0.0
2015-Aug-30 06:33N 52°01' E 005°06'0 0.0
2015-Aug-30 05:33N 52°01' E 005°06'0 0.0
2015-Aug-30 04:33N 52°01' E 005°06'0 0.0
2015-Aug-30 03:33N 52°01' E 005°06'0 0.0
2015-Aug-30 02:33N 52°01' E 005°06'0 0.0
2015-Aug-30 01:33N 52°01' E 005°06'0 0.0
2015-Aug-30 00:33N 52°01' E 005°06'0 0.0
2015-Aug-29 23:33N 52°01' E 005°06'0 0.0
2015-Aug-29 22:33N 52°01' E 005°06'0 0.0
2015-Aug-29 21:33N 52°01' E 005°06'0 0.0
2015-Aug-29 20:33N 52°01' E 005°06'0 0.0
2015-Aug-29 19:33N 52°01' E 005°06'0 0.0
2015-Aug-29 18:33N 52°01' E 005°06'6 5.9
2015-Aug-29 17:33N 51°58' E 004°58'8 7.9
2015-Aug-29 16:33N 51°55' E 004°46'9 8.6
2015-Aug-29 15:33N 51°54' E 004°32'5 4.6
2015-Aug-29 14:33N 51°55' E 004°25'0 0.0
2015-Aug-29 13:33N 51°55' E 004°25'0 0.0
2015-Aug-29 12:33N 51°55' E 004°25'0 0.0
2015-Aug-29 11:33N 51°55' E 004°25'0 0.0
2015-Aug-29 10:33N 51°55' E 004°25'0 0.0
2015-Aug-29 09:33N 51°55' E 004°25'0 0.0
2015-Aug-29 08:33N 51°55' E 004°25'0 0.0
2015-Aug-29 07:33N 51°55' E 004°25'0 0.0
2015-Aug-29 06:33N 51°55' E 004°25'0 0.0
2015-Aug-29 05:33N 51°55' E 004°25'0 0.1
2015-Aug-29 04:33N 51°55' E 004°25'0 0.0
2015-Aug-29 03:33N 51°55' E 004°25'0 0.0
2015-Aug-29 02:33N 51°55' E 004°25'0 0.0
2015-Aug-29 00:33N 51°55' E 004°25'0 0.0
2015-Aug-28 23:33N 51°55' E 004°25'0 0.0
2015-Aug-28 22:33N 51°55' E 004°25'0 0.0
2015-Aug-28 21:33N 51°55' E 004°25'0 0.0
2015-Aug-28 20:33N 51°55' E 004°25'0 0.0
2015-Aug-28 19:33N 51°55' E 004°25'2 2.1
2015-Aug-28 18:33N 51°53' E 004°27'0 0.1
2015-Aug-28 17:33N 51°53' E 004°27'0 0.0
2015-Aug-28 16:33N 51°53' E 004°27'0 0.0
2015-Aug-28 15:33N 51°53' E 004°27'0 0.0
2015-Aug-28 14:33N 51°53' E 004°27'0 0.0
2015-Aug-28 13:32N 51°53' E 004°27'0 0.0
2015-Aug-28 12:33N 51°53' E 004°27'0 0.0
2015-Aug-28 11:33N 51°53' E 004°27'0 0.0
2015-Aug-28 10:33N 51°53' E 004°27'1 1.0
2015-Aug-28 09:33N 51°54' E 004°27'6 6.3
2015-Aug-28 08:33N 51°53' E 004°37'7 6.7
2015-Aug-28 07:33N 51°49' E 004°46'8 7.8
2015-Aug-28 06:33N 51°49' E 004°59'8 7.9
2015-Aug-28 05:33N 51°49' E 005°11'1 1.2
2015-Aug-28 04:33N 51°49' E 005°13'0 0.0
2015-Aug-28 03:33N 51°49' E 005°13'0 0.0
2015-Aug-28 02:34N 51°49' E 005°13'0 0.0
2015-Aug-28 01:34N 51°49' E 005°13'0 0.0
2015-Aug-28 00:33N 51°49' E 005°13'0 0.0
2015-Aug-27 23:33N 51°49' E 005°13'0 0.0
2015-Aug-27 22:34N 51°49' E 005°13'0 0.0
2015-Aug-27 21:33N 51°49' E 005°13'0 0.0
2015-Aug-27 20:33N 51°49' E 005°13'0 0.0
2015-Aug-27 19:34N 51°49' E 005°13'0 0.0
2015-Aug-27 18:33N 51°49' E 005°13'0 0.0
2015-Aug-27 17:33N 51°49' E 005°13'0 0.0
2015-Aug-27 16:33N 51°49' E 005°13'0 0.0
2015-Aug-27 15:33N 51°49' E 005°13'0 0.0
2015-Aug-27 14:33N 51°49' E 005°13'0 0.0
2015-Aug-27 13:33N 51°49' E 005°13'0 0.0
2015-Aug-27 12:33N 51°49' E 005°13'4 3.9
2015-Aug-27 11:30N 51°49' E 005°20'7 7.2
2015-Aug-27 10:34N 51°53' E 005°28'9 8.4
2015-Aug-27 09:32N 51°54' E 005°42'58 1.5
2015-Aug-25 19:16N 51°33' E 007°10'13 1.1
2015-Aug-25 07:16N 51°36' E 007°30'0 0.0
2015-Aug-24 04:24N 51°36' E 007°30'0 0.1
2015-Aug-24 03:30N 51°36' E 007°30'0 0.0
2015-Aug-23 06:26N 51°36' E 007°30'0 0.0
2015-Aug-23 05:33N 51°36' E 007°30'0 0.0
2015-Aug-23 04:30N 51°36' E 007°30'0 0.0
2015-Aug-23 03:33N 51°36' E 007°30'0 0.0
2015-Aug-23 02:33N 51°36' E 007°30'0 0.0
2015-Aug-23 01:30N 51°36' E 007°30'0 0.0
2015-Aug-23 00:34N 51°36' E 007°30'  

Dump ship's entire track history